Flight Track Log - Related Links

Times and Time Zones

All times are in EDT time to prevent confusion due to time zone crossing. See the UAL4583 flight status page for this flight to view local times or setup timezone preferences in your user account.

Time Position Orientation Groundspeed Altitude Reporting Facility
EDT Latitude Longitude Course Direction KTS MPH feet Rate Location/Type
Mon 12:00:21 PM 40.6667 -74.1833 59° Northeast 169 194 1,100  Level New York TRACON
Mon 12:01:21 PM 40.6333 -74.2167 217° Southwest 196 226 3,400 2,250 Climbing New York TRACON
Mon 12:02:21 PM 40.6833 -74.2000 14° North 232 267 5,600 1,350 Climbing New York TRACON
Mon 12:03:21 PM 40.7167 -74.1167 62° Northeast 286 329 6,100 1,350 Climbing New York TRACON
Mon 12:04:21 PM 40.7667 -74.0333 52° Northeast 290 334 8,300 2,000 Climbing New York TRACON
Mon 12:05:00 PM 40.9227 -73.6207 59° Northeast  Level FlightAware Approximate
Mon 12:05:21 PM 40.8000 -73.9333 66° East 316 364 10,100  Level New York TRACON
Mon 12:06:22 PM 40.8500 -73.8167 60° Northeast 382 440 10,100  Level New York TRACON
Mon 12:07:27 PM 40.9167 -73.6833 56° Northeast 372 428 10,100  Level New York TRACON
Mon 12:08:27 PM 40.9667 -73.5667 60° Northeast 373 429 10,100  Level New York TRACON
Mon 12:09:27 PM 41.0167 -73.4500 60° Northeast 366 421 10,100 -52 Level New York TRACON
Mon 12:10:22 PM 41.1000 -73.3667 37° Northeast 360 414 10,000  Descending New York TRACON
Mon 12:11:22 PM 41.1833 -73.3000 31° Northeast 363 418 10,100 48 Climbing New York TRACON
Mon 12:12:27 PM 41.2667 -73.2333 31° Northeast 372 428 10,100 -31 Level New York TRACON
Mon 12:14:38 PM 41.4650 -73.0744 31° Northeast 370 426 10,000 -31 Descending Boston Center
Mon 12:15:38 PM 41.5444 -73.0114 31° Northeast 303 349 10,000 -595 Level Boston Center
Mon 12:16:39 PM 41.6053 -72.9397 41° Northeast 284 327 8,800 -1,426 Descending Boston Center
Mon 12:17:40 PM 41.6578 -72.8597 49° Northeast 279 321 7,100 -1,574 Descending Boston Center
Mon 12:18:41 PM 41.7081 -72.7850 48° Northeast 261 300 5,600 -1,096 Descending Boston Center
Mon 12:19:35 PM 41.7478 -72.7183 51° Northeast 254 292 5,000 -1,096 Descending Boston Center
Mon 12:20:36 PM 41.7936 -72.6489 48° Northeast 253 291 3,500 -1,279 Descending Boston Center
Mon 12:21:37 PM 41.8439 -72.6100 30° Northeast 210 242 2,400 -1,131 Descending Boston Center
Mon 12:22:38 PM 41.8917 -72.6325 341° North 163 188 1,200 -934 Descending Boston Center
Mon 12:23:39 PM 41.9167 -72.6689 313° West 118 136 500 -689 Descending Boston Center

Login

Don't have an account? Register now (free) for customized features, flight alerts, and more!